createdAt,value
2023-02-04T00:00:03.568Z,984.53
2023-02-04T00:01:03.580Z,984.67
2023-02-04T00:02:03.634Z,984.67
2023-02-04T00:03:03.954Z,984.62
2023-02-04T00:04:03.696Z,984.77
2023-02-04T00:05:03.569Z,984.62
2023-02-04T00:06:03.839Z,984.73
2023-02-04T00:07:03.665Z,984.59
2023-02-04T00:08:04.830Z,984.86
2023-02-04T00:09:02.932Z,984.70
2023-02-04T00:10:03.004Z,984.64
2023-02-04T00:11:02.899Z,984.80
2023-02-04T00:12:02.886Z,984.62
2023-02-04T00:13:03.005Z,984.78
2023-02-04T00:14:03.900Z,984.53
2023-02-04T00:15:03.867Z,984.73
2023-02-04T00:16:03.106Z,984.70
2023-02-04T00:17:03.030Z,984.65
2023-02-04T00:18:02.990Z,984.76
2023-02-04T00:19:03.642Z,984.67
2023-02-04T00:20:03.647Z,984.95
2023-02-04T00:21:03.736Z,984.83
2023-02-04T00:22:03.730Z,984.83
2023-02-04T00:23:03.749Z,984.73
2023-02-04T00:24:03.828Z,984.73
2023-02-04T00:25:03.859Z,984.62
2023-02-04T00:26:03.852Z,984.83
2023-02-04T00:27:03.750Z,984.76
2023-02-04T00:28:03.891Z,984.76
2023-02-04T00:29:03.734Z,984.78
2023-02-04T00:30:03.768Z,984.92
2023-02-04T00:31:03.786Z,984.84
2023-02-04T00:32:03.985Z,984.84
2023-02-04T00:33:03.757Z,984.89
2023-02-04T00:34:03.900Z,984.81
2023-02-04T00:35:03.767Z,984.92
2023-02-04T00:36:03.829Z,984.84
2023-02-04T00:37:03.795Z,984.98
2023-02-04T00:38:03.726Z,984.92
2023-02-04T00:39:03.753Z,985.00
2023-02-04T00:40:03.636Z,984.81
2023-02-04T00:41:03.721Z,985.06
2023-02-04T00:42:03.610Z,984.98
2023-02-04T00:43:03.548Z,984.98
2023-02-04T00:44:03.610Z,985.03
2023-02-04T00:45:03.460Z,984.95
2023-02-04T00:46:03.523Z,984.95
2023-02-04T00:47:03.313Z,985.03
2023-02-04T00:48:03.471Z,984.92
2023-02-04T00:49:03.461Z,985.01
2023-02-04T00:50:03.433Z,985.23
2023-02-04T00:51:03.442Z,985.12
2023-02-04T00:52:03.447Z,985.09
2023-02-04T00:53:03.389Z,985.06
2023-02-04T00:54:03.269Z,985.23
2023-02-04T00:55:03.386Z,985.29
2023-02-04T00:56:03.388Z,985.23
2023-02-04T00:57:03.464Z,985.09
2023-02-04T00:58:03.446Z,985.12
2023-02-04T00:59:03.537Z,985.21
2023-02-04T01:00:03.568Z,985.29
2023-02-04T01:01:03.746Z,985.21
2023-02-04T01:02:03.692Z,985.34
2023-02-04T01:03:03.791Z,985.18
2023-02-04T01:04:03.721Z,985.09
2023-02-04T01:05:03.614Z,985.37
2023-02-04T01:06:03.552Z,985.34
2023-02-04T01:07:03.719Z,985.13
2023-02-04T01:08:03.691Z,985.34
2023-02-04T01:09:03.646Z,985.37
2023-02-04T01:10:03.715Z,985.60
2023-02-04T01:11:02.984Z,985.37
2023-02-04T01:12:03.107Z,985.48
2023-02-04T01:13:03.015Z,985.51
2023-02-04T01:14:03.917Z,985.43
2023-02-04T01:15:03.897Z,985.49
2023-02-04T01:16:03.880Z,985.37
2023-02-04T01:17:03.732Z,985.46
2023-02-04T01:18:03.706Z,985.54
2023-02-04T01:19:04.946Z,985.40
2023-02-04T01:20:03.563Z,985.52
2023-02-04T01:21:03.545Z,985.69
2023-02-04T01:22:03.564Z,985.49
2023-02-04T01:23:03.682Z,985.55
2023-02-04T01:24:03.616Z,985.46
2023-02-04T01:25:03.555Z,985.52
2023-02-04T01:26:03.463Z,985.60
2023-02-04T01:27:03.496Z,985.58
2023-02-04T01:28:03.580Z,985.58
2023-02-04T01:29:03.510Z,985.52
2023-02-04T01:30:03.458Z,985.60
2023-02-04T01:31:03.523Z,985.66
2023-02-04T01:32:03.482Z,985.69
2023-02-04T01:33:03.283Z,985.69
2023-02-04T01:34:03.344Z,985.66
2023-02-04T01:35:03.309Z,985.94
2023-02-04T01:36:03.272Z,985.94
2023-02-04T01:37:03.208Z,986.11
2023-02-04T01:38:03.339Z,986.09
2023-02-04T01:39:03.190Z,986.25
2023-02-04T01:40:03.253Z,986.28
2023-02-04T01:41:03.183Z,986.28
2023-02-04T01:42:03.199Z,986.58
2023-02-04T01:43:03.216Z,986.64
2023-02-04T01:44:03.226Z,986.67
2023-02-04T01:45:03.185Z,986.92
2023-02-04T01:46:03.323Z,986.84
2023-02-04T01:47:03.012Z,986.76
2023-02-04T01:48:02.967Z,986.73
2023-02-04T01:49:03.889Z,987.02
2023-02-04T01:50:03.942Z,987.02
2023-02-04T01:51:03.832Z,987.05
2023-02-04T01:52:03.938Z,987.08
2023-02-04T01:53:03.844Z,987.08
2023-02-04T01:54:03.853Z,987.06
2023-02-04T01:55:03.913Z,987.14
2023-02-04T01:56:03.917Z,987.23
2023-02-04T01:57:03.758Z,987.32
2023-02-04T01:58:03.816Z,987.12
2023-02-04T01:59:03.754Z,987.12
2023-02-04T02:00:03.663Z,987.24
2023-02-04T02:01:03.792Z,987.18
2023-02-04T02:02:03.672Z,987.44
2023-02-04T02:03:03.710Z,987.30
2023-02-04T02:04:03.651Z,987.27
2023-02-04T02:05:03.690Z,987.22
2023-02-04T02:06:03.639Z,987.25
2023-02-04T02:07:03.538Z,987.36
2023-02-04T02:08:03.563Z,987.42
2023-02-04T02:09:03.609Z,987.31
2023-02-04T02:10:03.649Z,987.31
2023-02-04T02:11:03.736Z,987.31
2023-02-04T02:12:03.700Z,987.42
2023-02-04T02:13:03.644Z,987.36
2023-02-04T02:14:03.748Z,987.53
2023-02-04T02:15:03.757Z,987.48
2023-02-04T02:16:03.716Z,987.45
2023-02-04T02:17:03.870Z,987.56
2023-02-04T02:18:03.893Z,987.37
2023-02-04T02:19:03.815Z,987.56
2023-02-04T02:20:03.735Z,987.70
2023-02-04T02:21:03.796Z,987.51
2023-02-04T02:22:03.879Z,987.62
2023-02-04T02:23:03.973Z,987.59
2023-02-04T02:24:03.861Z,987.79
2023-02-04T02:25:03.870Z,987.65
2023-02-04T02:26:03.890Z,987.62
2023-02-04T02:27:03.863Z,987.81
2023-02-04T02:28:03.939Z,987.79
2023-02-04T02:29:03.882Z,987.70
2023-02-04T02:30:03.856Z,987.82
2023-02-04T02:31:04.073Z,987.73
2023-02-04T02:32:03.757Z,987.79
2023-02-04T02:33:03.942Z,987.84
2023-02-04T02:34:03.852Z,987.98
2023-02-04T02:35:03.832Z,987.82
2023-02-04T02:36:03.780Z,987.92
2023-02-04T02:37:03.739Z,987.76
2023-02-04T02:38:03.760Z,988.03
2023-02-04T02:39:03.672Z,987.98
2023-02-04T02:40:03.708Z,987.95
2023-02-04T02:41:03.802Z,987.98
2023-02-04T02:42:03.695Z,988.09
2023-02-04T02:43:04.568Z,988.03
2023-02-04T02:44:03.702Z,987.85
2023-02-04T02:45:03.739Z,988.09
2023-02-04T02:46:03.861Z,988.03
2023-02-04T02:47:03.702Z,988.09
2023-02-04T02:48:03.686Z,988.20
2023-02-04T02:49:03.670Z,988.20
2023-02-04T02:50:03.684Z,988.15
2023-02-04T02:51:03.849Z,988.20
2023-02-04T02:52:03.776Z,988.20
2023-02-04T02:53:03.721Z,988.15
2023-02-04T02:54:03.609Z,988.15
2023-02-04T02:55:03.608Z,988.18
2023-02-04T02:56:03.616Z,988.31
2023-02-04T02:57:03.589Z,988.31
2023-02-04T02:58:03.477Z,988.33
2023-02-04T02:59:03.482Z,988.47
2023-02-04T03:00:03.406Z,988.42
2023-02-04T03:01:03.457Z,988.56
2023-02-04T03:02:03.392Z,988.53
2023-02-04T03:03:03.309Z,988.50
2023-02-04T03:04:03.240Z,988.42
2023-02-04T03:05:03.386Z,988.47
2023-02-04T03:06:03.282Z,988.42
2023-02-04T03:07:03.366Z,988.58
2023-02-04T03:08:03.419Z,988.64
2023-02-04T03:09:03.311Z,988.53
2023-02-04T03:10:03.382Z,988.50
2023-02-04T03:11:03.123Z,988.61
2023-02-04T03:12:03.064Z,988.53
2023-02-04T03:13:03.221Z,988.56
2023-02-04T03:14:03.195Z,988.53
2023-02-04T03:15:03.173Z,988.73
2023-02-04T03:16:03.392Z,988.56
2023-02-04T03:17:03.323Z,988.64
2023-02-04T03:18:03.298Z,988.73
2023-02-04T03:19:03.215Z,988.73
2023-02-04T03:20:03.131Z,988.78
2023-02-04T03:21:03.135Z,988.81
2023-02-04T03:22:03.237Z,988.70
2023-02-04T03:23:03.186Z,988.70
2023-02-04T03:24:03.360Z,988.64
2023-02-04T03:25:03.211Z,988.75
2023-02-04T03:26:03.209Z,988.81
2023-02-04T03:27:03.231Z,988.70
2023-02-04T03:28:03.392Z,988.84
2023-02-04T03:29:03.388Z,988.84
2023-02-04T03:30:03.276Z,988.67
2023-02-04T03:31:03.384Z,988.87
2023-02-04T03:32:03.564Z,988.73
2023-02-04T03:33:03.328Z,988.67
2023-02-04T03:34:03.371Z,988.76
2023-02-04T03:35:03.460Z,988.87
2023-02-04T03:36:03.352Z,988.87
2023-02-04T03:37:03.376Z,988.87
2023-02-04T03:38:03.343Z,988.98
2023-02-04T03:39:03.505Z,989.01
2023-02-04T03:40:03.369Z,989.09
2023-02-04T03:41:03.490Z,989.12
2023-02-04T03:42:03.512Z,989.21
2023-02-04T03:43:03.419Z,989.09
2023-02-04T03:44:03.378Z,989.29
2023-02-04T03:45:03.424Z,989.37
2023-02-04T03:46:03.463Z,989.37
2023-02-04T03:47:03.332Z,989.51
2023-02-04T03:48:03.343Z,989.54
2023-02-04T03:49:03.302Z,989.49
2023-02-04T03:50:03.326Z,989.51
2023-02-04T03:51:03.238Z,989.49
2023-02-04T03:52:03.168Z,989.46
2023-02-04T03:53:03.079Z,989.51
2023-02-04T03:54:03.072Z,989.68
2023-02-04T03:55:03.130Z,989.57
2023-02-04T03:56:03.129Z,989.73
2023-02-04T03:57:03.078Z,989.73
2023-02-04T03:58:03.012Z,989.70
2023-02-04T03:59:03.030Z,989.70
2023-02-04T04:00:03.475Z,989.68
2023-02-04T04:01:03.540Z,989.87
2023-02-04T04:02:03.482Z,989.73
2023-02-04T04:03:03.559Z,989.76
2023-02-04T04:04:03.439Z,989.81
2023-02-04T04:05:03.436Z,989.84
2023-02-04T04:06:03.478Z,989.90
2023-02-04T04:07:03.498Z,989.84
2023-02-04T04:08:03.532Z,989.84
2023-02-04T04:09:03.588Z,989.95
2023-02-04T04:10:03.457Z,990.01
2023-02-04T04:11:03.524Z,990.01
2023-02-04T04:12:03.502Z,990.01
2023-02-04T04:13:03.536Z,989.95
2023-02-04T04:14:03.420Z,990.04
2023-02-04T04:15:03.440Z,989.98
2023-02-04T04:16:03.537Z,990.04
2023-02-04T04:17:03.466Z,989.95
2023-02-04T04:18:03.347Z,990.04
2023-02-04T04:19:03.460Z,990.24
2023-02-04T04:20:03.468Z,990.23
2023-02-04T04:21:03.344Z,990.29
2023-02-04T04:22:03.399Z,990.29
2023-02-04T04:23:03.397Z,990.18
2023-02-04T04:24:03.443Z,990.26
2023-02-04T04:25:03.249Z,990.26
2023-02-04T04:26:03.322Z,990.24
2023-02-04T04:27:03.339Z,990.38
2023-02-04T04:28:03.507Z,990.32
2023-02-04T04:29:03.193Z,990.38
2023-02-04T04:30:03.353Z,990.38
2023-02-04T04:31:03.569Z,990.38
2023-02-04T04:32:03.394Z,990.48
2023-02-04T04:33:03.367Z,990.38
2023-02-04T04:34:03.289Z,990.51
2023-02-04T04:35:03.188Z,990.56
2023-02-04T04:36:03.293Z,990.48
2023-02-04T04:37:03.284Z,990.43
2023-02-04T04:38:03.314Z,990.65
2023-02-04T04:39:03.325Z,990.68
2023-02-04T04:40:03.315Z,990.68
2023-02-04T04:41:03.443Z,990.73
2023-02-04T04:42:03.460Z,990.73
2023-02-04T04:43:03.476Z,990.73
2023-02-04T04:44:03.467Z,990.79
2023-02-04T04:45:03.417Z,990.70
2023-02-04T04:46:03.454Z,990.73
2023-02-04T04:47:03.322Z,990.68
2023-02-04T04:48:03.379Z,990.68
2023-02-04T04:49:03.299Z,990.84
2023-02-04T04:50:03.396Z,990.90
2023-02-04T04:51:03.250Z,990.90
2023-02-04T04:52:03.239Z,990.87
2023-02-04T04:53:03.231Z,990.87
2023-02-04T04:54:03.386Z,990.84
2023-02-04T04:55:03.333Z,991.07
2023-02-04T04:56:03.207Z,990.96
2023-02-04T04:57:03.226Z,990.96
2023-02-04T04:58:03.208Z,990.90
2023-02-04T04:59:03.515Z,991.04
2023-02-04T05:00:03.507Z,991.01
2023-02-04T05:01:03.534Z,991.12
2023-02-04T05:02:03.528Z,991.04
2023-02-04T05:03:03.496Z,991.21
2023-02-04T05:04:03.615Z,991.21
2023-02-04T05:05:03.805Z,991.26
2023-02-04T05:06:03.546Z,991.15
2023-02-04T05:07:03.491Z,991.15
2023-02-04T05:08:03.487Z,991.18
2023-02-04T05:09:03.546Z,991.12
2023-02-04T05:10:03.564Z,991.18
2023-02-04T05:11:03.443Z,991.24
2023-02-04T05:12:03.473Z,991.12
2023-02-04T05:13:03.373Z,991.40
2023-02-04T05:14:03.441Z,991.43
2023-02-04T05:15:03.564Z,991.24
2023-02-04T05:16:03.638Z,991.29
2023-02-04T05:17:03.557Z,991.40
2023-02-04T05:18:03.578Z,991.32
2023-02-04T05:19:03.491Z,991.48
2023-02-04T05:20:03.500Z,991.40
2023-02-04T05:21:03.395Z,991.48
2023-02-04T05:22:03.345Z,991.40
2023-02-04T05:23:06.058Z,991.43
2023-02-04T05:24:03.224Z,991.46
2023-02-04T05:25:03.392Z,991.29
2023-02-04T05:26:03.272Z,991.35
2023-02-04T05:27:03.274Z,991.46
2023-02-04T05:28:03.430Z,991.43
2023-02-04T05:29:03.255Z,991.43
2023-02-04T05:30:03.293Z,991.43
2023-02-04T05:31:04.340Z,991.43
2023-02-04T05:32:03.330Z,991.38
2023-02-04T05:33:03.295Z,991.35
2023-02-04T05:34:03.261Z,991.38
2023-02-04T05:35:05.658Z,991.48
2023-02-04T05:36:03.223Z,991.40
2023-02-04T05:37:03.175Z,991.35
2023-02-04T05:38:03.329Z,991.29
2023-02-04T05:39:03.209Z,991.48
2023-02-04T05:40:03.208Z,991.53
2023-02-04T05:41:03.231Z,991.56
2023-02-04T05:42:03.226Z,991.46
2023-02-04T05:43:03.784Z,991.62
2023-02-04T05:44:02.916Z,991.51
2023-02-04T05:45:03.878Z,991.56
2023-02-04T05:46:03.072Z,991.59
2023-02-04T05:47:03.880Z,991.54
2023-02-04T05:48:02.919Z,991.65
2023-02-04T05:49:02.962Z,991.65
2023-02-04T05:50:02.885Z,991.73
2023-02-04T05:51:03.001Z,991.68
2023-02-04T05:52:03.053Z,991.82
2023-02-04T05:53:03.070Z,991.73
2023-02-04T05:54:03.008Z,991.76
2023-02-04T05:55:02.995Z,991.96
2023-02-04T05:56:03.032Z,991.84
2023-02-04T05:57:03.121Z,991.87
2023-02-04T05:58:02.988Z,991.93
2023-02-04T05:59:02.986Z,991.87
2023-02-04T06:00:03.025Z,991.82
2023-02-04T06:01:03.041Z,991.93
2023-02-04T06:02:03.041Z,991.90
2023-02-04T06:03:03.143Z,991.98
2023-02-04T06:04:04.000Z,992.01
2023-02-04T06:05:03.901Z,992.10
2023-02-04T06:06:02.970Z,992.15
2023-02-04T06:07:03.893Z,992.04
2023-02-04T06:08:03.887Z,992.01
2023-02-04T06:09:03.875Z,992.24
2023-02-04T06:10:03.792Z,992.29
2023-02-04T06:11:03.727Z,992.26
2023-02-04T06:12:03.731Z,992.35
2023-02-04T06:13:03.713Z,992.29
2023-02-04T06:14:03.730Z,992.32
2023-02-04T06:15:03.666Z,992.32
2023-02-04T06:16:03.704Z,992.49
2023-02-04T06:17:03.675Z,992.24
2023-02-04T06:18:03.833Z,992.40
2023-02-04T06:19:03.740Z,992.46
2023-02-04T06:20:03.666Z,992.54
2023-02-04T06:21:03.598Z,992.46
2023-02-04T06:22:03.527Z,992.43
2023-02-04T06:23:03.541Z,992.60
2023-02-04T06:24:05.583Z,992.60
2023-02-04T06:25:03.444Z,992.38
2023-02-04T06:26:03.488Z,992.60
2023-02-04T06:27:03.544Z,992.63
2023-02-04T06:28:03.726Z,992.71
2023-02-04T06:29:03.601Z,992.71
2023-02-04T06:30:03.650Z,992.68
2023-02-04T06:31:03.805Z,992.57
2023-02-04T06:32:03.707Z,992.52
2023-02-04T06:33:03.711Z,992.60
2023-02-04T06:34:03.761Z,992.60
2023-02-04T06:35:03.770Z,992.60
2023-02-04T06:36:03.937Z,992.57
2023-02-04T06:37:03.897Z,992.68
2023-02-04T06:38:03.792Z,992.68
2023-02-04T06:39:03.846Z,992.60
2023-02-04T06:40:03.877Z,992.63
2023-02-04T06:41:03.835Z,992.54
2023-02-04T06:42:03.870Z,992.74
2023-02-04T06:43:05.058Z,992.83
2023-02-04T06:44:03.894Z,992.71
2023-02-04T06:45:03.854Z,992.66
2023-02-04T06:46:03.984Z,992.69
2023-02-04T06:47:03.863Z,992.66
2023-02-04T06:48:02.971Z,992.77
2023-02-04T06:49:03.882Z,992.71
2023-02-04T06:50:02.949Z,992.77
2023-02-04T06:51:03.056Z,992.80
2023-02-04T06:52:03.129Z,992.69
2023-02-04T06:53:03.081Z,992.80
2023-02-04T06:54:03.014Z,992.74
2023-02-04T06:55:02.990Z,992.77
2023-02-04T06:56:03.118Z,992.90
2023-02-04T06:57:03.103Z,992.83
2023-02-04T06:58:03.013Z,992.90
2023-02-04T06:59:03.836Z,992.85
2023-02-04T07:00:03.217Z,992.85
2023-02-04T07:01:03.191Z,992.83
2023-02-04T07:02:03.093Z,992.72
2023-02-04T07:03:03.239Z,992.96
2023-02-04T07:04:03.227Z,992.86
2023-02-04T07:05:03.227Z,992.72
2023-02-04T07:06:03.200Z,992.86
2023-02-04T07:07:03.260Z,992.86
2023-02-04T07:08:03.330Z,992.88
2023-02-04T07:09:03.225Z,992.90
2023-02-04T07:10:03.267Z,992.88
2023-02-04T07:11:03.118Z,993.04
2023-02-04T07:12:03.008Z,992.96
2023-02-04T07:13:03.004Z,992.96
2023-02-04T07:14:03.086Z,993.07
2023-02-04T07:15:03.111Z,993.24
2023-02-04T07:16:03.346Z,993.13
2023-02-04T07:17:03.165Z,993.26
2023-02-04T07:18:03.127Z,993.16
2023-02-04T07:19:04.205Z,993.37
2023-02-04T07:20:03.856Z,993.18
2023-02-04T07:21:03.872Z,993.24
2023-02-04T07:22:03.869Z,993.29
2023-02-04T07:23:03.791Z,993.34
2023-02-04T07:24:03.848Z,993.48
2023-02-04T07:25:03.810Z,993.45
2023-02-04T07:26:03.839Z,993.43
2023-02-04T07:27:03.750Z,993.37
2023-02-04T07:28:03.812Z,993.51
2023-02-04T07:29:03.799Z,993.62
2023-02-04T07:30:03.939Z,993.54
2023-02-04T07:31:03.135Z,993.48
2023-02-04T07:32:03.255Z,993.59
2023-02-04T07:33:02.981Z,993.57
2023-02-04T07:34:03.055Z,993.71
2023-02-04T07:35:03.104Z,993.57
2023-02-04T07:36:03.054Z,993.71
2023-02-04T07:37:03.321Z,993.62
2023-02-04T07:38:02.986Z,993.73
2023-02-04T07:39:02.990Z,993.85
2023-02-04T07:40:03.913Z,993.68
2023-02-04T07:41:02.983Z,993.76
2023-02-04T07:42:03.401Z,993.71
2023-02-04T07:43:03.026Z,993.76
2023-02-04T07:44:03.167Z,993.82
2023-02-04T07:45:03.163Z,993.99
2023-02-04T07:46:03.205Z,993.82
2023-02-04T07:47:03.067Z,993.82
2023-02-04T07:48:03.011Z,993.87
2023-02-04T07:49:03.183Z,993.73
2023-02-04T07:50:03.068Z,993.93
2023-02-04T07:51:03.009Z,993.90
2023-02-04T07:52:03.057Z,993.98
2023-02-04T07:53:03.099Z,993.96
2023-02-04T07:54:03.139Z,993.96
2023-02-04T07:55:03.118Z,994.01
2023-02-04T07:56:03.025Z,993.87
2023-02-04T07:57:03.133Z,994.01
2023-02-04T07:58:02.987Z,994.04
2023-02-04T07:59:03.032Z,994.01
2023-02-04T08:00:03.163Z,993.96
2023-02-04T08:01:02.977Z,993.93
2023-02-04T08:02:03.023Z,993.96
2023-02-04T08:03:03.138Z,994.12
2023-02-04T08:04:02.984Z,993.93
2023-02-04T08:05:03.011Z,993.93
2023-02-04T08:06:03.037Z,994.07
2023-02-04T08:07:02.995Z,994.07
2023-02-04T08:08:03.031Z,994.01
2023-02-04T08:09:02.910Z,994.09
2023-02-04T08:10:02.972Z,994.07
2023-02-04T08:11:02.955Z,994.09
2023-02-04T08:12:02.977Z,994.01
2023-02-04T08:13:02.979Z,994.12
2023-02-04T08:14:03.889Z,994.26
2023-02-04T08:15:03.846Z,994.26
2023-02-04T08:16:03.044Z,994.40
2023-02-04T08:17:03.035Z,994.32
2023-02-04T08:18:02.939Z,994.35
2023-02-04T08:19:03.861Z,994.46
2023-02-04T08:20:03.009Z,994.29
2023-02-04T08:21:03.907Z,994.26
2023-02-04T08:22:03.818Z,994.32
2023-02-04T08:23:03.765Z,994.35
2023-02-04T08:24:03.703Z,994.49
2023-02-04T08:25:03.721Z,994.29
2023-02-04T08:26:03.814Z,994.43
2023-02-04T08:27:03.760Z,994.40
2023-02-04T08:28:03.873Z,994.43
2023-02-04T08:29:03.825Z,994.46
2023-02-04T08:30:03.783Z,994.43
2023-02-04T08:31:04.072Z,994.46
2023-02-04T08:32:03.828Z,994.46
2023-02-04T08:33:03.614Z,994.43
2023-02-04T08:34:03.576Z,994.48
2023-02-04T08:35:06.559Z,994.48
2023-02-04T08:36:03.536Z,994.60
2023-02-04T08:37:03.553Z,994.60
2023-02-04T08:38:03.555Z,994.45
2023-02-04T08:39:03.381Z,994.57
2023-02-04T08:40:03.467Z,994.51
2023-02-04T08:41:03.433Z,994.65
2023-02-04T08:42:03.303Z,994.57
2023-02-04T08:43:03.448Z,994.65
2023-02-04T08:44:03.547Z,994.48
2023-02-04T08:45:03.551Z,994.43
2023-02-04T08:46:03.448Z,994.62
2023-02-04T08:47:03.421Z,994.54
2023-02-04T08:48:03.359Z,994.59
2023-02-04T08:49:03.458Z,994.62
2023-02-04T08:50:03.533Z,994.62
2023-02-04T08:51:03.653Z,994.81
2023-02-04T08:52:03.565Z,994.72
2023-02-04T08:53:03.592Z,994.59
2023-02-04T08:54:03.684Z,994.78
2023-02-04T08:55:03.557Z,994.92
2023-02-04T08:56:03.647Z,994.69
2023-02-04T08:57:03.935Z,994.83
2023-02-04T08:58:03.599Z,994.86
2023-02-04T08:59:03.566Z,994.78
2023-02-04T09:00:03.682Z,994.97
2023-02-04T09:01:03.725Z,994.97
2023-02-04T09:02:03.887Z,994.95
2023-02-04T09:03:03.691Z,995.06
2023-02-04T09:04:03.752Z,994.98
2023-02-04T09:05:03.639Z,995.12
2023-02-04T09:06:03.614Z,995.12
2023-02-04T09:07:03.917Z,995.17
2023-02-04T09:08:03.630Z,995.20
2023-02-04T09:09:03.694Z,995.12
2023-02-04T09:10:03.633Z,995.31
2023-02-04T09:11:03.612Z,995.26
2023-02-04T09:12:03.653Z,995.12
2023-02-04T09:13:03.555Z,995.12
2023-02-04T09:14:03.562Z,995.17
2023-02-04T09:15:03.581Z,995.28
2023-02-04T09:16:03.693Z,995.31
2023-02-04T09:17:03.667Z,995.28
2023-02-04T09:18:03.489Z,995.28
2023-02-04T09:19:03.593Z,995.37
2023-02-04T09:20:03.641Z,995.17
2023-02-04T09:21:03.780Z,995.31
2023-02-04T09:22:03.686Z,995.34
2023-02-04T09:23:03.759Z,995.37
2023-02-04T09:24:03.843Z,995.31
2023-02-04T09:25:03.758Z,995.26
2023-02-04T09:26:03.633Z,995.28
2023-02-04T09:27:03.742Z,995.40
2023-02-04T09:28:03.797Z,995.31
2023-02-04T09:29:03.597Z,995.39
2023-02-04T09:30:03.535Z,995.51
2023-02-04T09:31:04.977Z,995.34
2023-02-04T09:32:03.712Z,995.45
2023-02-04T09:33:03.511Z,995.42
2023-02-04T09:34:03.570Z,995.45
2023-02-04T09:35:03.605Z,995.39
2023-02-04T09:36:03.591Z,995.37
2023-02-04T09:37:03.563Z,995.39
2023-02-04T09:38:03.545Z,995.45
2023-02-04T09:39:03.450Z,995.45
2023-02-04T09:40:03.317Z,995.61
2023-02-04T09:41:03.357Z,995.51
2023-02-04T09:42:03.447Z,995.42
2023-02-04T09:43:03.564Z,995.56
2023-02-04T09:44:03.549Z,995.51
2023-02-04T09:45:03.670Z,995.53
2023-02-04T09:46:03.756Z,995.66
2023-02-04T09:47:03.613Z,995.61
2023-02-04T09:48:03.635Z,995.66
2023-02-04T09:49:03.670Z,995.64
2023-02-04T09:50:03.724Z,995.75
2023-02-04T09:51:03.873Z,995.72
2023-02-04T09:52:03.812Z,995.75
2023-02-04T09:53:03.782Z,995.63
2023-02-04T09:54:03.843Z,995.63
2023-02-04T09:55:03.740Z,995.74
2023-02-04T09:56:03.740Z,995.72
2023-02-04T09:57:03.833Z,995.77
2023-02-04T09:58:03.754Z,995.80
2023-02-04T09:59:03.842Z,995.85
2023-02-04T10:00:03.848Z,995.74
2023-02-04T10:01:03.936Z,995.80
2023-02-04T10:02:03.876Z,995.80
2023-02-04T10:03:03.892Z,995.85
2023-02-04T10:04:03.047Z,995.83
2023-02-04T10:05:03.082Z,995.80
2023-02-04T10:06:03.039Z,996.08
2023-02-04T10:07:02.977Z,996.08
2023-02-04T10:08:03.878Z,996.22
2023-02-04T10:09:03.892Z,996.08
2023-02-04T10:10:02.933Z,996.11
2023-02-04T10:11:02.921Z,996.14
2023-02-04T10:12:03.012Z,996.28
2023-02-04T10:13:03.910Z,996.33
2023-02-04T10:14:03.864Z,996.25
2023-02-04T10:15:03.863Z,996.30
2023-02-04T10:16:03.813Z,996.31
2023-02-04T10:17:04.249Z,996.36
2023-02-04T10:18:03.101Z,996.33
2023-02-04T10:19:03.229Z,996.45
2023-02-04T10:20:03.045Z,996.31
2023-02-04T10:21:03.107Z,996.36
2023-02-04T10:22:02.957Z,996.19
2023-02-04T10:23:02.959Z,996.36
2023-02-04T10:24:02.965Z,996.45
2023-02-04T10:25:02.928Z,996.39
2023-02-04T10:26:02.970Z,996.34
2023-02-04T10:27:02.986Z,996.34
2023-02-04T10:28:03.172Z,996.36
2023-02-04T10:29:03.022Z,996.36
2023-02-04T10:30:02.946Z,996.39
2023-02-04T10:31:03.223Z,996.31
2023-02-04T10:32:03.824Z,996.17
2023-02-04T10:33:03.850Z,996.25
2023-02-04T10:34:03.831Z,996.28
2023-02-04T10:35:03.740Z,996.19
2023-02-04T10:36:03.855Z,996.25
2023-02-04T10:37:03.877Z,996.33
2023-02-04T10:38:03.883Z,996.28
2023-02-04T10:39:03.881Z,996.28
2023-02-04T10:40:03.932Z,996.19
2023-02-04T10:41:04.004Z,996.22
2023-02-04T10:42:03.839Z,996.19
2023-02-04T10:43:02.949Z,996.45
2023-02-04T10:44:03.469Z,996.36
2023-02-04T10:45:03.472Z,996.47
2023-02-04T10:46:03.611Z,996.28
2023-02-04T10:47:03.408Z,996.45
2023-02-04T10:48:03.449Z,996.49
2023-02-04T10:49:03.476Z,996.49
2023-02-04T10:50:03.516Z,996.36
2023-02-04T10:51:03.685Z,996.42
2023-02-04T10:52:03.673Z,996.30
2023-02-04T10:53:03.704Z,996.28
2023-02-04T10:54:03.741Z,996.33
2023-02-04T10:55:03.820Z,996.30
2023-02-04T10:56:03.746Z,996.36
2023-02-04T10:57:03.801Z,996.36
2023-02-04T10:58:03.854Z,996.44
2023-02-04T10:59:03.868Z,996.36
2023-02-04T11:00:03.830Z,996.27
2023-02-04T11:01:04.087Z,996.41
2023-02-04T11:02:03.858Z,996.39
2023-02-04T11:03:03.141Z,996.27
2023-02-04T11:04:03.079Z,996.41
2023-02-04T11:05:03.062Z,996.47
2023-02-04T11:06:03.065Z,996.49
2023-02-04T11:07:03.070Z,996.44
2023-02-04T11:08:03.096Z,996.49
2023-02-04T11:09:03.076Z,996.25
2023-02-04T11:10:03.011Z,996.39
2023-02-04T11:11:03.011Z,996.47
2023-02-04T11:12:02.964Z,996.41
2023-02-04T11:13:03.052Z,996.39
2023-02-04T11:14:03.189Z,996.49
2023-02-04T11:15:03.154Z,996.41
2023-02-04T11:16:03.152Z,996.38
2023-02-04T11:17:03.097Z,996.36
2023-02-04T11:18:03.126Z,996.47
2023-02-04T11:19:03.154Z,996.44
2023-02-04T11:20:03.227Z,996.36
2023-02-04T11:21:03.366Z,996.54
2023-02-04T11:22:03.416Z,996.44
2023-02-04T11:23:03.205Z,996.60
2023-02-04T11:24:03.344Z,996.47
2023-02-04T11:25:03.216Z,996.49
2023-02-04T11:26:03.222Z,996.54
2023-02-04T11:27:03.218Z,996.49
2023-02-04T11:28:03.471Z,996.44
2023-02-04T11:29:03.305Z,996.51
2023-02-04T11:30:03.345Z,996.51
2023-02-04T11:31:03.603Z,996.49
2023-02-04T11:32:03.609Z,996.71
2023-02-04T11:33:03.452Z,996.60
2023-02-04T11:34:03.489Z,996.68
2023-02-04T11:35:03.527Z,996.71
2023-02-04T11:36:03.519Z,996.77
2023-02-04T11:37:03.534Z,996.63
2023-02-04T11:38:03.556Z,996.80
2023-02-04T11:39:03.448Z,996.85
2023-02-04T11:40:03.557Z,996.97
2023-02-04T11:41:03.613Z,996.85
2023-02-04T11:42:03.565Z,996.91
2023-02-04T11:43:03.645Z,996.88
2023-02-04T11:44:03.673Z,996.97
2023-02-04T11:45:03.729Z,996.83
2023-02-04T11:46:03.722Z,996.94
2023-02-04T11:47:03.718Z,996.97
2023-02-04T11:48:03.816Z,996.99
2023-02-04T11:49:03.842Z,996.97
2023-02-04T11:50:02.909Z,996.91
2023-02-04T11:51:03.057Z,997.02
2023-02-04T11:52:02.971Z,996.97
2023-02-04T11:53:03.536Z,996.91
2023-02-04T11:54:03.536Z,996.97
2023-02-04T11:55:03.489Z,996.94
2023-02-04T11:56:03.440Z,996.91
2023-02-04T11:57:03.525Z,996.85
2023-02-04T11:58:03.497Z,997.02
2023-02-04T11:59:03.440Z,996.99
2023-02-04T12:00:03.387Z,997.05
2023-02-04T12:01:03.418Z,996.99
2023-02-04T12:02:03.233Z,996.99
2023-02-04T12:03:03.451Z,996.91
2023-02-04T12:04:03.367Z,996.88
2023-02-04T12:05:03.382Z,996.88
2023-02-04T12:06:03.374Z,996.88
2023-02-04T12:07:03.404Z,996.94
2023-02-04T12:08:03.356Z,996.94
2023-02-04T12:09:03.313Z,996.82
2023-02-04T12:10:03.359Z,996.88
2023-02-04T12:11:03.402Z,996.80
2023-02-04T12:12:03.555Z,996.94
2023-02-04T12:13:03.550Z,996.88
2023-02-04T12:14:03.571Z,996.96
2023-02-04T12:15:03.563Z,996.85
2023-02-04T12:16:03.660Z,996.88
2023-02-04T12:17:03.482Z,997.02
2023-02-04T12:18:03.440Z,996.91
2023-02-04T12:19:03.464Z,996.99
2023-02-04T12:20:03.546Z,997.13
2023-02-04T12:21:03.619Z,996.99
2023-02-04T12:22:03.606Z,997.13
2023-02-04T12:23:03.580Z,997.08
2023-02-04T12:24:03.418Z,997.13
2023-02-04T12:25:03.369Z,997.16
2023-02-04T12:26:03.368Z,997.08
2023-02-04T12:27:03.364Z,997.10
2023-02-04T12:28:03.516Z,997.16